Time;durP1;ratioP1;P1;durP2;ratioP2;P2;SDS_P1;SDS_P2;PMS_P1;PMS_P2;Temp;Humidity;BMP_temperature;BMP_pressure;BME280_temperature;BME280_humidity;BME280_pressure;Samples;Min_cycle;Max_cycle;Signal;HPM_P1;HPM_P2
2022/06/01 00:01:52;;;;;;;10.40;8.88;;;11.30;99.90;;;;;;5059494;28;20060;-56
2022/06/01 00:04:19;;;;;;;9.27;7.68;;;11.30;99.90;;;;;;5059020;28;20033;-56
2022/06/01 00:06:45;;;;;;;13.18;8.82;;;11.30;99.90;;;;;;5061685;28;20394;-56
2022/06/01 00:09:12;;;;;;;12.70;9.45;;;11.30;99.90;;;;;;5063084;28;20052;-55
2022/06/01 00:11:38;;;;;;;10.25;8.50;;;11.30;99.90;;;;;;5059191;28;20056;-56
2022/06/01 00:14:04;;;;;;;12.02;8.93;;;11.30;99.90;;;;;;5064539;28;20037;-57
2022/06/01 00:16:31;;;;;;;12.05;8.55;;;11.30;99.90;;;;;;5053015;28;20041;-57
2022/06/01 00:18:57;;;;;;;12.38;9.65;;;11.30;99.90;;;;;;5063430;28;20044;-56
2022/06/01 00:21:23;;;;;;;10.15;7.93;;;11.30;99.90;;;;;;5067987;28;20554;-57
2022/06/01 00:23:49;;;;;;;11.02;8.10;;;11.30;99.90;;;;;;5067338;28;20045;-57
2022/06/01 00:26:16;;;;;;;11.23;7.72;;;11.30;99.90;;;;;;5058815;28;20427;-57
2022/06/01 00:28:41;;;;;;;11.60;8.93;;;11.30;99.90;;;;;;5064646;28;20040;-56
2022/06/01 00:31:07;;;;;;;11.10;9.45;;;11.30;99.90;;;;;;5061048;28;20121;-55
2022/06/01 00:33:33;;;;;;;11.07;9.77;;;11.30;99.90;;;;;;5066307;28;20169;-57
2022/06/01 00:35:59;;;;;;;10.25;9.25;;;11.20;99.90;;;;;;5065948;28;20068;-57
2022/06/01 00:38:25;;;;;;;10.70;9.32;;;11.10;99.90;;;;;;5065763;28;20040;-57
2022/06/01 00:40:50;;;;;;;14.50;9.40;;;11.10;99.90;;;;;;5068468;28;20040;-57
2022/06/01 00:43:36;;;;;;;15.32;9.55;;;11.10;99.90;;;;;;5068528;28;20056;-57
2022/06/01 00:46:02;;;;;;;13.05;10.48;;;11.10;99.90;;;;;;5065273;28;20097;-56
2022/06/01 00:48:30;;;;;;;12.68;9.77;;;11.10;99.90;;;;;;5064976;28;20411;-57
2022/06/01 00:50:56;;;;;;;10.93;9.80;;;11.10;99.90;;;;;;5067306;28;20044;-57
2022/06/01 00:53:29;;;;;;;11.48;9.73;;;11.10;99.90;;;;;;5067377;28;20395;-57
2022/06/01 00:56:00;;;;;;;11.68;9.60;;;11.00;99.90;;;;;;5068619;28;20487;-57
2022/06/01 00:58:32;;;;;;;9.98;8.65;;;11.00;99.90;;;;;;5064970;28;20501;-56
2022/06/01 01:00:58;;;;;;;10.38;8.77;;;11.00;99.90;;;;;;5069038;28;20478;-56
2022/06/01 01:03:28;;;;;;;12.27;9.57;;;11.00;99.90;;;;;;5063746;28;20438;-57
2022/06/01 01:06:11;;;;;;;10.80;9.70;;;11.00;99.90;;;;;;5063200;28;20091;-57
2022/06/01 01:08:38;;;;;;;14.98;11.20;;;11.00;99.90;;;;;;5066495;28;20040;-56
2022/06/01 01:11:10;;;;;;;14.02;11.65;;;11.00;99.90;;;;;;5066596;28;20070;-57
2022/06/01 01:13:38;;;;;;;13.82;10.85;;;11.00;99.90;;;;;;5062890;28;20098;-55
2022/06/01 01:16:04;;;;;;;13.57;11.27;;;10.90;99.90;;;;;;5062650;28;20433;-57
2022/06/01 01:18:36;;;;;;;13.02;11.07;;;11.00;99.90;;;;;;5060149;28;20398;-57
2022/06/01 01:21:12;;;;;;;13.00;10.95;;;11.00;99.90;;;;;;5066190;28;20540;-57
2022/06/01 01:23:58;;;;;;;13.55;10.88;;;10.90;99.90;;;;;;5068129;28;20052;-56
2022/06/01 01:26:26;;;;;;;11.55;10.35;;;10.90;99.90;;;;;;5059993;28;20043;-57
2022/06/01 01:28:53;;;;;;;11.57;10.38;;;10.90;99.90;;;;;;5061942;28;20048;-56
2022/06/01 01:31:21;;;;;;;11.57;9.48;;;11.00;99.90;;;;;;5067015;28;20040;-56
2022/06/01 01:33:50;;;;;;;11.45;9.68;;;10.90;99.90;;;;;;5063833;28;20041;-56
2022/06/01 01:36:19;;;;;;;12.00;10.45;;;10.90;99.90;;;;;;5064108;28;20503;-56
2022/06/01 01:38:54;;;;;;;11.00;9.55;;;11.00;99.90;;;;;;5063671;28;20044;-57
2022/06/01 01:41:26;;;;;;;13.10;11.38;;;11.00;99.90;;;;;;5063562;28;20506;-56
2022/06/01 01:44:00;;;;;;;12.48;11.15;;;11.00;99.90;;;;;;5068034;28;20388;-56
2022/06/01 01:46:27;;;;;;;11.35;9.85;;;11.00;99.90;;;;;;5068071;28;20547;-57
2022/06/01 01:48:53;;;;;;;11.50;10.15;;;10.90;99.90;;;;;;5063256;28;20149;-56
2022/06/01 01:51:23;;;;;;;11.05;9.95;;;10.90;99.90;;;;;;5062009;28;20063;-56
2022/06/01 01:53:50;;;;;;;14.25;11.25;;;10.90;99.90;;;;;;5046555;28;20499;-57
2022/06/01 01:56:25;;;;;;;13.57;10.90;;;10.90;99.90;;;;;;5063439;28;20375;-57
2022/06/01 01:59:30;;;;;;;13.98;11.48;;;10.90;99.90;;;;;;5063574;28;20085;-55
2022/06/01 02:02:02;;;;;;;13.80;11.70;;;10.90;99.90;;;;;;4979173;28;20380;-57
2022/06/01 02:07:39;;;;;;;14.25;10.80;;;10.90;99.90;;;;;;5064433;28;20032;-56
2022/06/01 02:12:50;;;;;;;13.50;11.68;;;10.90;99.90;;;;;;5066133;28;20052;-57
2022/06/01 02:15:22;;;;;;;17.40;13.60;;;10.80;99.90;;;;;;5066425;28;20674;-57
2022/06/01 02:17:55;;;;;;;14.40;11.88;;;10.80;99.90;;;;;;5064357;28;20052;-56
2022/06/01 02:20:32;;;;;;;;;;;10.80;99.90;;;;;;5064350;28;20145;-57
2022/06/01 02:22:59;;;;;;;12.43;11.18;;;10.80;99.90;;;;;;5059079;28;19924;-57
2022/06/01 02:25:25;;;;;;;14.45;12.95;;;10.70;99.90;;;;;;5060569;28;20048;-56
2022/06/01 02:27:54;;;;;;;16.70;13.02;;;10.70;99.90;;;;;;5053459;28;20153;-57
2022/06/01 02:30:34;;;;;;;15.95;12.15;;;10.80;99.90;;;;;;5064373;28;20052;-57
2022/06/01 02:33:03;;;;;;;14.60;12.35;;;10.80;99.90;;;;;;5063666;28;20052;-56
2022/06/01 02:35:32;;;;;;;13.80;12.40;;;10.80;99.90;;;;;;5053304;28;20114;-57
2022/06/01 02:38:00;;;;;;;16.90;12.88;;;10.80;99.90;;;;;;5059768;28;20078;-57
2022/06/01 02:40:26;;;;;;;15.43;12.77;;;10.80;99.90;;;;;;5063452;28;20045;-56
2022/06/01 02:42:53;;;;;;;16.38;14.07;;;10.70;99.90;;;;;;5070998;28;20048;-55
2022/06/01 02:45:23;;;;;;;15.55;13.38;;;10.70;99.90;;;;;;5063508;28;20126;-56
2022/06/01 02:47:54;;;;;;;14.10;12.63;;;10.70;99.90;;;;;;5064517;28;20059;-57
2022/06/01 02:50:26;;;;;;;15.60;12.57;;;10.70;99.90;;;;;;5074812;28;20048;-56
2022/06/01 02:52:52;;;;;;;;;;;10.70;99.90;;;;;;5065166;28;20071;-57
2022/06/01 02:55:21;;;;;;;15.85;12.63;;;10.70;99.90;;;;;;5058328;28;19917;-56
2022/06/01 02:57:48;;;;;;;13.02;11.73;;;10.60;99.90;;;;;;5063046;28;20048;-57
2022/06/01 03:00:17;;;;;;;18.35;13.15;;;10.60;99.90;;;;;;5058976;28;20079;-56
2022/06/01 03:02:45;;;;;;;13.63;12.02;;;10.60;99.90;;;;;;5058023;28;20048;-57
2022/06/01 03:05:14;;;;;;;14.98;13.38;;;10.60;99.90;;;;;;5065656;28;20037;-56
2022/06/01 03:07:40;;;;;;;14.32;12.93;;;10.60;99.90;;;;;;5057790;28;20536;-57
2022/06/01 03:10:06;;;;;;;17.30;13.18;;;10.60;99.90;;;;;;5063033;28;20056;-56
2022/06/01 03:12:32;;;;;;;14.68;12.10;;;10.60;99.90;;;;;;5060132;28;20591;-56
2022/06/01 03:14:57;;;;;;;13.80;11.50;;;10.60;99.90;;;;;;5062130;28;20044;-56
2022/06/01 03:17:23;;;;;;;13.75;12.30;;;10.60;99.90;;;;;;5063143;28;20041;-56
2022/06/01 03:19:49;;;;;;;14.40;12.80;;;10.60;99.90;;;;;;5061498;28;20036;-57
2022/06/01 03:22:15;;;;;;;11.85;10.73;;;10.50;99.90;;;;;;5072191;28;20044;-57
2022/06/01 03:24:41;;;;;;;16.25;14.10;;;10.50;99.90;;;;;;5057063;28;20302;-57
2022/06/01 03:27:07;;;;;;;16.77;13.88;;;10.50;99.90;;;;;;5062959;28;20083;-57
2022/06/01 03:29:33;;;;;;;17.70;14.27;;;10.50;99.90;;;;;;5060917;28;20131;-57
2022/06/01 03:31:59;;;;;;;14.90;13.30;;;10.40;99.90;;;;;;5062755;28;20045;-57
2022/06/01 03:34:28;;;;;;;16.13;13.63;;;10.40;99.90;;;;;;5055363;28;20098;-55
2022/06/01 03:36:54;;;;;;;16.45;14.63;;;10.40;99.90;;;;;;5060956;28;20065;-56
2022/06/01 03:39:20;;;;;;;15.77;14.10;;;10.40;99.90;;;;;;5065314;28;20517;-57
2022/06/01 03:41:46;;;;;;;16.00;14.30;;;10.40;99.90;;;;;;5060032;28;20056;-56
2022/06/01 03:47:10;;;;;;;15.88;14.18;;;10.40;99.90;;;;;;5064386;28;20033;-57
2022/06/01 03:49:37;;;;;;;16.35;14.30;;;10.40;99.90;;;;;;5063867;28;20119;-56
2022/06/01 03:52:03;;;;;;;18.02;13.82;;;10.40;99.90;;;;;;5062121;28;20056;-56
2022/06/01 03:54:30;;;;;;;16.05;14.35;;;10.40;99.90;;;;;;5064017;28;20390;-56
2022/06/01 03:56:56;;;;;;;17.27;14.25;;;10.40;99.90;;;;;;5061826;28;20080;-56
2022/06/01 03:59:21;;;;;;;16.23;14.40;;;10.40;99.90;;;;;;5058312;28;20178;-56
2022/06/01 04:01:48;;;;;;;18.65;15.30;;;10.50;99.90;;;;;;5067041;28;20048;-56
2022/06/01 04:04:14;;;;;;;18.23;15.43;;;10.50;99.90;;;;;;5066161;28;20560;-56
2022/06/01 04:06:40;;;;;;;17.80;15.20;;;10.50;99.90;;;;;;5064173;28;20055;-56
2022/06/01 04:09:05;;;;;;;15.25;13.65;;;10.50;99.90;;;;;;5063173;28;20511;-57
2022/06/01 04:11:31;;;;;;;19.95;15.60;;;10.50;99.90;;;;;;5065771;28;20063;-56
2022/06/01 04:13:57;;;;;;;18.77;15.98;;;10.50;99.90;;;;;;5064489;28;20048;-57
2022/06/01 04:16:23;;;;;;;20.63;16.35;;;10.50;99.90;;;;;;5067427;28;20048;-57
2022/06/01 04:18:49;;;;;;;17.73;15.85;;;10.60;99.90;;;;;;5073590;28;20175;-57
2022/06/01 04:21:18;;;;;;;18.27;15.25;;;10.50;99.90;;;;;;5064004;28;20170;-56
2022/06/01 04:23:44;;;;;;;16.83;15.15;;;10.60;99.90;;;;;;5064149;28;20059;-56
2022/06/01 04:26:10;;;;;;;19.08;16.83;;;10.60;99.90;;;;;;5066315;28;20853;-57
2022/06/01 04:28:36;;;;;;;18.73;16.58;;;10.60;99.90;;;;;;5060521;28;20037;-57
2022/06/01 04:31:02;;;;;;;21.95;16.27;;;10.70;99.90;;;;;;5066985;28;20079;-57
2022/06/01 04:33:28;;;;;;;19.38;16.50;;;10.70;99.90;;;;;;5064618;28;20069;-57
2022/06/01 04:35:54;;;;;;;19.15;17.20;;;10.70;99.90;;;;;;5066678;28;20064;-57
2022/06/01 04:38:20;;;;;;;19.02;17.02;;;10.70;99.90;;;;;;5062302;28;20041;-56
2022/06/01 04:40:48;;;;;;;22.42;17.48;;;10.70;99.90;;;;;;5066060;28;20101;-57
2022/06/01 04:43:17;;;;;;;19.10;16.70;;;10.80;99.90;;;;;;5068877;28;20048;-57
2022/06/01 04:45:42;;;;;;;17.63;15.82;;;10.80;99.90;;;;;;5063522;28;20127;-57
2022/06/01 04:48:08;;;;;;;18.90;16.60;;;10.80;99.90;;;;;;5056707;28;20178;-57
2022/06/01 04:50:34;;;;;;;19.77;16.55;;;10.80;99.90;;;;;;5067804;28;20087;-57
2022/06/01 04:53:01;;;;;;;19.35;16.23;;;10.90;99.90;;;;;;5061567;28;20700;-57
2022/06/01 04:55:27;;;;;;;19.63;16.75;;;10.90;99.90;;;;;;5063620;28;20502;-55
2022/06/01 04:57:53;;;;;;;20.48;17.17;;;10.90;99.90;;;;;;5066428;28;20037;-57
2022/06/01 05:00:19;;;;;;;18.30;16.38;;;11.00;99.90;;;;;;5065407;28;20037;-57
2022/06/01 05:02:45;;;;;;;19.38;17.27;;;11.00;99.90;;;;;;5069852;28;20117;-57
2022/06/01 05:05:11;;;;;;;23.45;18.83;;;11.10;99.90;;;;;;5056509;28;20044;-57
2022/06/01 05:07:37;;;;;;;22.55;17.55;;;11.10;99.90;;;;;;5064703;28;20041;-56
2022/06/01 05:10:03;;;;;;;20.85;17.80;;;11.20;99.90;;;;;;5057487;28;20807;-56
2022/06/01 05:12:29;;;;;;;21.02;17.40;;;11.20;99.90;;;;;;5055448;28;20128;-57
2022/06/01 05:14:55;;;;;;;20.90;18.65;;;11.20;99.90;;;;;;5062245;28;20119;-56
2022/06/01 05:17:21;;;;;;;21.52;19.30;;;11.20;99.90;;;;;;5068612;28;20047;-56
2022/06/01 05:19:47;;;;;;;21.13;18.73;;;11.30;99.90;;;;;;5062678;28;20072;-56
2022/06/01 05:22:13;;;;;;;20.15;17.92;;;11.30;99.90;;;;;;5063465;28;20048;-57
2022/06/01 05:24:38;;;;;;;23.92;19.45;;;11.30;99.90;;;;;;5039212;28;20067;-57
2022/06/01 05:27:06;;;;;;;22.50;18.92;;;11.30;99.90;;;;;;5060056;28;20036;-56
2022/06/01 05:29:33;;;;;;;24.70;19.42;;;11.40;99.90;;;;;;5064540;28;20044;-57
2022/06/01 05:31:59;;;;;;;25.60;20.15;;;11.40;99.90;;;;;;5055888;28;20491;-58
2022/06/01 05:34:24;;;;;;;22.98;19.33;;;11.40;99.90;;;;;;5054586;28;20055;-57
2022/06/01 05:36:51;;;;;;;23.75;20.80;;;11.40;99.90;;;;;;5063546;28;20516;-57
2022/06/01 05:39:17;;;;;;;24.38;19.98;;;11.50;99.90;;;;;;5059899;28;20082;-57
2022/06/01 05:41:42;;;;;;;22.85;20.35;;;11.60;99.90;;;;;;5050719;28;20184;-57
2022/06/01 05:44:08;;;;;;;25.77;19.17;;;11.60;99.90;;;;;;5052354;28;20432;-56
2022/06/01 05:46:37;;;;;;;22.17;18.90;;;11.70;99.90;;;;;;5058276;28;20513;-57
2022/06/01 05:49:03;;;;;;;21.42;19.10;;;11.80;99.90;;;;;;5058479;28;21112;-57
2022/06/01 05:51:29;;;;;;;23.85;19.50;;;11.90;99.90;;;;;;5052384;28;20041;-55
2022/06/01 05:53:58;;;;;;;25.02;18.30;;;12.00;99.90;;;;;;5058398;28;21511;-57
2022/06/01 05:56:24;;;;;;;21.70;18.95;;;12.00;99.90;;;;;;5058345;28;20036;-55
2022/06/01 05:58:50;;;;;;;22.27;19.13;;;12.10;99.90;;;;;;5060516;28;20040;-57
2022/06/01 06:01:22;;;;;;;24.98;19.00;;;12.30;99.90;;;;;;5058492;28;20047;-57
2022/06/01 06:03:49;;;;;;;24.08;18.92;;;12.30;99.90;;;;;;5060400;28;20044;-57
2022/06/01 06:06:15;;;;;;;23.30;17.92;;;12.40;99.90;;;;;;5057890;28;20054;-55
2022/06/01 06:08:49;;;;;;;19.67;17.58;;;12.60;99.90;;;;;;5062005;28;20048;-56
2022/06/01 06:11:16;;;;;;;21.75;17.60;;;12.70;99.90;;;;;;5054447;28;20123;-56
2022/06/01 06:13:42;;;;;;;19.95;17.55;;;12.80;99.90;;;;;;5046327;28;20127;-57
2022/06/01 06:16:09;;;;;;;18.45;16.27;;;12.90;99.90;;;;;;5044445;28;20093;-56
2022/06/01 06:18:35;;;;;;;18.15;16.23;;;13.10;99.90;;;;;;5027680;28;20051;-55
2022/06/01 06:21:01;;;;;;;18.95;16.38;;;13.20;99.90;;;;;;5065947;28;20052;-56
2022/06/01 06:23:27;;;;;;;18.90;16.50;;;13.30;99.90;;;;;;5067850;28;20190;-56
2022/06/01 06:25:53;;;;;;;19.10;16.65;;;13.40;99.90;;;;;;5065028;28;20460;-57
2022/06/01 06:28:19;;;;;;;17.92;16.13;;;13.50;99.90;;;;;;5059163;28;20048;-56
2022/06/01 06:30:45;;;;;;;18.13;16.13;;;13.50;99.90;;;;;;5066430;28;20482;-57
2022/06/01 06:33:11;;;;;;;16.73;12.70;;;13.50;99.90;;;;;;5065710;28;20068;-57
2022/06/01 06:35:37;;;;;;;13.45;8.02;;;13.30;99.90;;;;;;5054920;28;20053;-58
2022/06/01 06:38:03;;;;;;;7.40;5.70;;;13.20;99.90;;;;;;5061089;28;20095;-57
2022/06/01 06:40:29;;;;;;;13.18;7.07;;;13.00;99.90;;;;;;5057243;28;20040;-57
2022/06/01 06:42:55;;;;;;;12.02;7.88;;;12.80;99.90;;;;;;5055129;28;20418;-58
2022/06/01 06:45:21;;;;;;;12.82;9.45;;;12.60;99.90;;;;;;5061192;28;20055;-56
2022/06/01 06:47:48;;;;;;;12.50;9.77;;;12.40;99.90;;;;;;5056162;28;20082;-57
2022/06/01 06:50:15;;;;;;;12.05;8.10;;;12.30;99.90;;;;;;5058938;28;20055;-57
2022/06/01 06:52:41;;;;;;;10.02;8.38;;;12.20;99.90;;;;;;5059868;28;20045;-57
2022/06/01 06:55:08;;;;;;;12.88;8.60;;;12.10;99.90;;;;;;5062254;28;20473;-56
2022/06/01 06:57:34;;;;;;;8.90;7.70;;;12.10;99.90;;;;;;5060489;28;20171;-57
2022/06/01 07:00:00;;;;;;;9.50;7.13;;;12.00;99.90;;;;;;5062246;28;20486;-56
2022/06/01 07:02:26;;;;;;;10.52;7.30;;;12.00;99.90;;;;;;5059956;28;20052;-58
2022/06/01 07:04:52;;;;;;;8.80;7.43;;;12.00;99.90;;;;;;5057621;28;20040;-56
2022/06/01 07:07:18;;;;;;;9.70;8.70;;;12.00;99.90;;;;;;5058799;28;20045;-57
2022/06/01 07:09:44;;;;;;;9.40;8.40;;;12.00;99.90;;;;;;5057868;28;20052;-57
2022/06/01 07:12:10;;;;;;;12.45;8.63;;;12.00;99.90;;;;;;5035030;28;20040;-58
2022/06/01 07:14:37;;;;;;;10.05;8.93;;;12.00;99.90;;;;;;5058019;28;20051;-57
2022/06/01 07:17:03;;;;;;;10.48;8.93;;;12.00;99.90;;;;;;5057828;28;20040;-58
2022/06/01 07:19:29;;;;;;;10.43;9.32;;;12.10;99.90;;;;;;5056038;28;20040;-56
2022/06/01 07:21:55;;;;;;;11.38;9.98;;;12.10;99.90;;;;;;5064040;28;20117;-57
2022/06/01 07:24:21;;;;;;;14.05;9.80;;;12.10;99.90;;;;;;5066156;28;20044;-57
2022/06/01 07:26:48;;;;;;;12.63;10.70;;;12.20;99.90;;;;;;5066067;28;20123;-57
2022/06/01 07:29:18;;;;;;;16.38;11.13;;;12.30;99.90;;;;;;5062746;28;20049;-57
2022/06/01 07:31:45;;;;;;;11.63;9.77;;;12.40;99.90;;;;;;5069292;28;20052;-58
2022/06/01 07:34:11;;;;;;;11.02;9.93;;;12.50;99.90;;;;;;5059992;28;20446;-57
2022/06/01 07:36:38;;;;;;;12.10;9.55;;;12.60;99.90;;;;;;5041884;28;20048;-56
2022/06/01 07:44:43;;;;;;;11.48;10.20;;;12.90;99.90;;;;;;5062194;28;20041;-57
2022/06/01 07:47:10;;;;;;;11.68;10.50;;;13.10;99.90;;;;;;5065209;28;20133;-57
2022/06/01 07:49:37;;;;;;;13.20;11.80;;;13.20;99.90;;;;;;5065701;28;20502;-58
2022/06/01 07:52:13;;;;;;;13.40;11.18;;;13.50;99.90;;;;;;5063197;28;20059;-58
2022/06/01 07:54:41;;;;;;;12.75;11.45;;;13.70;99.90;;;;;;5064416;28;20387;-58
2022/06/01 07:57:07;;;;;;;13.07;11.77;;;14.00;99.90;;;;;;5064640;28;20074;-58
2022/06/01 07:59:33;;;;;;;13.50;10.80;;;14.20;99.90;;;;;;5051901;28;20040;-58
2022/06/01 08:02:00;;;;;;;12.25;11.05;;;14.40;99.90;;;;;;5062158;28;20044;-58
2022/06/01 08:04:26;;;;;;;13.02;11.60;;;14.50;99.90;;;;;;5061670;28;20079;-57
2022/06/01 08:06:52;;;;;;;12.63;10.85;;;14.60;99.90;;;;;;5056790;28;20527;-58
2022/06/01 08:09:18;;;;;;;13.13;10.88;;;14.70;99.90;;;;;;5054201;28;20070;-58
2022/06/01 08:14:28;;;;;;;9.45;8.45;;;15.00;99.90;;;;;;5056002;28;20040;-59
2022/06/01 08:16:54;;;;;;;10.15;9.13;;;15.10;99.90;;;;;;5056257;28;20475;-59
2022/06/01 08:19:20;;;;;;;9.93;9.00;;;15.10;99.90;;;;;;5060206;28;20098;-59
2022/06/01 08:21:46;;;;;;;10.25;9.25;;;15.00;99.90;;;;;;5062263;28;20576;-59
2022/06/01 08:24:13;;;;;;;9.90;8.27;;;15.00;99.90;;;;;;5063372;28;20051;-58
2022/06/01 08:26:39;;;;;;;8.27;7.57;;;15.00;99.90;;;;;;5063482;28;20068;-58
2022/06/01 08:29:05;;;;;;;8.25;7.30;;;15.00;99.90;;;;;;5065403;28;20056;-58
2022/06/01 08:31:32;;;;;;;8.45;7.07;;;15.00;99.90;;;;;;5065552;28;20375;-58
2022/06/01 08:34:00;;;;;;;8.52;7.63;;;15.00;99.90;;;;;;5063390;28;20044;-59
2022/06/01 08:36:25;;;;;;;7.10;6.40;;;15.10;99.90;;;;;;5061546;28;20507;-58
2022/06/01 08:38:51;;;;;;;8.05;6.85;;;15.20;99.90;;;;;;5064002;28;20049;-58
2022/06/01 08:41:22;;;;;;;7.13;6.50;;;15.20;99.90;;;;;;5061293;28;20041;-57
2022/06/01 08:43:53;;;;;;;7.85;7.05;;;15.40;99.90;;;;;;5051818;28;20044;-58
2022/06/01 08:46:21;;;;;;;7.30;6.60;;;15.50;99.90;;;;;;5060637;28;20113;-59
2022/06/01 08:48:54;;;;;;;7.22;6.53;;;15.60;99.90;;;;;;5060563;28;20118;-59
2022/06/01 08:51:24;;;;;;;7.45;6.65;;;15.70;99.90;;;;;;5066818;28;20418;-58
2022/06/01 08:53:49;;;;;;;9.38;7.13;;;15.70;99.90;;;;;;5067176;28;20051;-58
2022/06/01 08:56:20;;;;;;;7.78;7.05;;;15.70;99.90;;;;;;5075264;28;20052;-59
2022/06/01 08:59:13;;;;;;;7.45;6.65;;;15.70;99.90;;;;;;5066842;28;20132;-59
2022/06/01 09:01:50;;;;;;;5.45;4.95;;;15.70;99.90;;;;;;5063722;28;20049;-57
2022/06/01 09:04:47;;;;;;;5.85;5.30;;;15.80;99.90;;;;;;5069141;28;20040;-59
2022/06/01 09:07:22;;;;;;;5.82;5.32;;;15.80;99.90;;;;;;5063866;28;20044;-59
2022/06/01 09:10:11;;;;;;;5.63;5.05;;;15.90;99.90;;;;;;5066539;28;20044;-59
2022/06/01 09:12:37;;;;;;;4.40;4.00;;;16.00;99.90;;;;;;5069317;28;20060;-57
2022/06/01 09:15:15;;;;;;;4.72;3.75;;;16.10;99.90;;;;;;5067568;28;20047;-58
2022/06/01 09:17:43;;;;;;;3.83;3.53;;;16.30;99.90;;;;;;5069516;28;20040;-58
2022/06/01 09:23:11;;;;;;;5.60;4.78;;;16.70;99.90;;;;;;5042981;28;20562;-59
2022/06/01 09:25:38;;;;;;;4.60;4.20;;;16.90;99.90;;;;;;5065806;28;20075;-58
2022/06/01 09:28:19;;;;;;;5.25;4.45;;;17.00;99.90;;;;;;5067884;28;20055;-58
2022/06/01 09:30:51;;;;;;;4.85;4.45;;;17.20;99.90;;;;;;5068277;28;20032;-58
2022/06/01 09:33:30;;;;;;;5.00;4.53;;;17.20;99.90;;;;;;5068450;28;20466;-58
2022/06/01 09:36:01;;;;;;;8.38;4.05;;;17.20;99.90;;;;;;5065640;28;20060;-59
2022/06/01 09:38:54;;;;;;;7.95;4.25;;;17.40;99.90;;;;;;5062877;28;20040;-58
2022/06/01 09:41:26;;;;;;;3.75;3.45;;;17.60;99.90;;;;;;5060806;28;20056;-59
2022/06/01 09:44:05;;;;;;;3.53;3.15;;;17.70;99.90;;;;;;5068099;28;20098;-58
2022/06/01 09:46:36;;;;;;;4.35;3.53;;;17.50;99.60;;;;;;5054892;28;20048;-59
2022/06/01 09:49:08;;;;;;;4.03;3.30;;;17.30;99.50;;;;;;5062692;28;20066;-59
2022/06/01 09:51:39;;;;;;;3.30;3.00;;;17.10;99.70;;;;;;5064769;28;20047;-59
2022/06/01 09:54:12;;;;;;;4.03;2.80;;;17.10;99.90;;;;;;5066169;28;20049;-58
2022/06/01 09:56:45;;;;;;;3.17;2.88;;;17.20;99.60;;;;;;5059858;28;20123;-57
2022/06/01 10:08:15;;;;;;;1.00;0.90;;;17.40;98.80;;;;;;5061543;28;20478;-57
2022/06/01 10:10:58;;;;;;;2.03;1.50;;;17.40;97.10;;;;;;5065836;28;20079;-58
2022/06/01 10:13:49;;;;;;;4.20;1.50;;;17.30;96.20;;;;;;5064584;28;20045;-59
2022/06/01 10:16:35;;;;;;;1.70;1.50;;;17.20;96.20;;;;;;5064611;28;20045;-57
2022/06/01 10:19:05;;;;;;;1.50;1.40;;;17.30;96.60;;;;;;5068393;28;20044;-59
2022/06/01 10:21:45;;;;;;;1.60;1.00;;;17.30;95.90;;;;;;5068667;28;20332;-58
2022/06/01 10:24:20;;;;;;;0.90;0.90;;;17.30;95.50;;;;;;5068400;28;20040;-58
2022/06/01 10:26:59;;;;;;;2.58;1.23;;;17.20;95.10;;;;;;5060896;28;20045;-58
2022/06/01 10:29:38;;;;;;;1.40;1.30;;;17.20;95.30;;;;;;5066330;28;20458;-58
2022/06/01 10:32:11;;;;;;;1.30;1.20;;;17.20;94.80;;;;;;5063722;28;20053;-59
2022/06/01 10:35:14;;;;;;;1.45;1.20;;;17.30;95.50;;;;;;5064184;28;20041;-59
2022/06/01 10:38:41;;;;;;;1.30;1.20;;;17.50;96.00;;;;;;5039907;28;20052;-59
2022/06/01 10:41:25;;;;;;;1.80;1.70;;;17.80;95.20;;;;;;5004918;28;20518;-58
2022/06/01 10:43:57;;;;;;;2.75;1.60;;;18.00;95.10;;;;;;5056213;28;20163;-59
2022/06/01 10:46:59;;;;;;;1.30;1.15;;;18.20;94.20;;;;;;5067040;28;20414;-59
2022/06/01 10:49:48;;;;;;;3.35;1.90;;;18.40;93.30;;;;;;5061320;28;20076;-59
2022/06/01 10:52:20;;;;;;;1.67;1.58;;;18.50;93.80;;;;;;5066540;28;20045;-59
2022/06/01 10:54:54;;;;;;;1.60;1.50;;;18.50;91.60;;;;;;5065279;28;20055;-59
2022/06/01 10:57:21;;;;;;;1.50;1.35;;;18.30;92.40;;;;;;5064752;28;20048;-58
2022/06/01 10:59:48;;;;;;;1.88;1.40;;;18.10;92.60;;;;;;5064334;28;20371;-58
2022/06/01 11:02:27;;;;;;;3.03;1.80;;;18.00;93.00;;;;;;5061320;28;21150;-59
2022/06/01 11:05:02;;;;;;;3.17;2.10;;;17.90;93.00;;;;;;5056501;28;20502;-58
2022/06/01 11:07:49;;;;;;;4.13;2.45;;;17.70;93.60;;;;;;5066313;28;20064;-58
2022/06/01 11:10:51;;;;;;;2.35;2.00;;;17.50;94.70;;;;;;5053549;28;20139;-59
2022/06/01 11:13:35;;;;;;;2.92;2.10;;;17.30;95.80;;;;;;5056665;28;20051;-58
2022/06/01 11:16:08;;;;;;;2.88;1.90;;;17.20;96.30;;;;;;5053344;28;20049;-59
2022/06/01 11:18:53;;;;;;;2.08;1.73;;;17.20;96.70;;;;;;5055396;28;20041;-59
2022/06/01 11:21:31;;;;;;;3.38;1.83;;;17.10;96.60;;;;;;5052671;28;20091;-59
2022/06/01 11:24:15;;;;;;;3.13;1.80;;;17.10;96.60;;;;;;5066262;28;20542;-58
2022/06/01 11:27:18;;;;;;;2.25;1.73;;;17.10;96.90;;;;;;5061750;28;20049;-57
2022/06/01 11:30:07;;;;;;;2.10;1.42;;;17.30;95.70;;;;;;5062977;28;20088;-56
2022/06/01 11:32:38;;;;;;;3.38;1.30;;;17.40;95.20;;;;;;5064107;28;20131;-58
2022/06/01 11:35:13;;;;;;;1.08;0.93;;;17.40;95.20;;;;;;5064562;28;20037;-58
2022/06/01 11:38:18;;;;;;;1.02;0.90;;;17.50;94.60;;;;;;5063490;28;20055;-57
2022/06/01 11:40:47;;;;;;;0.80;0.80;;;17.50;93.50;;;;;;5061182;28;20483;-57
2022/06/01 11:43:31;;;;;;;1.20;1.00;;;17.50;93.70;;;;;;5061811;28;20082;-58
2022/06/01 11:46:13;;;;;;;1.30;1.20;;;17.50;93.50;;;;;;5067722;28;20044;-58
2022/06/01 11:48:49;;;;;;;1.60;1.50;;;17.40;93.50;;;;;;5067560;28;20048;-58
2022/06/01 11:51:35;;;;;;;2.50;1.70;;;17.40;93.90;;;;;;5067066;28;20071;-57
2022/06/01 11:54:09;;;;;;;1.30;1.20;;;17.40;94.30;;;;;;5062501;28;20427;-58
2022/06/01 11:56:59;;;;;;;1.33;1.23;;;17.40;94.00;;;;;;5065237;28;20403;-58
2022/06/01 11:59:27;;;;;;;1.10;1.00;;;17.50;94.20;;;;;;5063366;28;20181;-58
2022/06/01 12:02:40;;;;;;;1.52;1.40;;;17.60;94.00;;;;;;5058402;28;20049;-58
2022/06/01 12:05:20;;;;;;;1.50;1.40;;;17.80;93.50;;;;;;5058010;28;20079;-57
2022/06/01 12:07:50;;;;;;;1.65;1.30;;;18.00;93.10;;;;;;5060245;28;20040;-61
2022/06/01 12:10:27;;;;;;;1.35;1.25;;;18.10;92.70;;;;;;5060145;28;20061;-58
2022/06/01 12:13:16;;;;;;;2.00;1.80;;;18.10;92.40;;;;;;5061621;28;20076;-57
2022/06/01 12:16:03;;;;;;;1.98;1.80;;;18.20;92.00;;;;;;5064562;28;20040;-58
2022/06/01 12:18:29;;;;;;;2.15;2.00;;;18.10;91.70;;;;;;5067896;28;20029;-57
2022/06/01 12:21:17;;;;;;;2.00;1.90;;;18.00;91.70;;;;;;5061190;28;20059;-58
2022/06/01 12:29:34;;;;;;;2.30;2.10;;;17.50;92.40;;;;;;5066638;28;20048;-58
2022/06/01 12:32:03;;;;;;;2.20;2.00;;;17.50;92.70;;;;;;5063892;28;20040;-58
2022/06/01 12:34:33;;;;;;;2.00;1.90;;;17.50;93.10;;;;;;5067905;28;20050;-57
2022/06/01 12:37:11;;;;;;;2.10;2.00;;;17.50;93.00;;;;;;5067969;28;20099;-58
2022/06/01 12:39:40;;;;;;;2.30;2.10;;;17.70;93.50;;;;;;5063803;28;20052;-57
2022/06/01 12:42:34;;;;;;;2.28;2.08;;;18.10;94.00;;;;;;5069000;28;20055;-57
2022/06/01 12:45:03;;;;;;;2.67;2.47;;;18.50;93.80;;;;;;5063619;28;20040;-56
2022/06/01 12:47:34;;;;;;;3.15;2.60;;;18.70;93.20;;;;;;5071154;28;20044;-57
2022/06/01 12:50:18;;;;;;;10.38;2.95;;;18.70;92.80;;;;;;5062418;28;20045;-57
2022/06/01 12:52:44;;;;;;;2.60;2.40;;;18.60;93.30;;;;;;5066969;28;20053;-58
2022/06/01 12:55:22;;;;;;;4.03;2.22;;;18.40;93.20;;;;;;5069145;28;20494;-56
2022/06/01 12:57:58;;;;;;;9.88;1.75;;;18.10;93.30;;;;;;5064815;28;20042;-56
2022/06/01 13:00:32;;;;;;;1.90;1.40;;;17.80;92.90;;;;;;5068483;28;20055;-58
2022/06/01 13:02:59;;;;;;;1.80;1.50;;;17.50;92.80;;;;;;5068476;28;20048;-56
2022/06/01 13:05:38;;;;;;;1.60;1.50;;;17.20;93.30;;;;;;5068261;28;20263;-57
2022/06/01 13:08:09;;;;;;;1.70;1.60;;;17.00;93.60;;;;;;5065611;28;20091;-58
2022/06/01 13:10:36;;;;;;;1.50;1.35;;;16.80;94.30;;;;;;5065628;28;20261;-57
2022/06/01 13:13:10;;;;;;;1.75;1.60;;;16.60;94.70;;;;;;5066828;28;20464;-57
2022/06/01 13:15:37;;;;;;;2.78;1.83;;;16.50;95.30;;;;;;5065646;28;20043;-58
2022/06/01 13:18:06;;;;;;;2.80;1.90;;;16.40;96.40;;;;;;5066801;28;20048;-57
2022/06/01 13:20:44;;;;;;;2.15;1.60;;;16.20;97.40;;;;;;5065433;28;20033;-58
2022/06/01 13:23:27;;;;;;;1.70;1.23;;;16.10;98.10;;;;;;5068101;28;20045;-58
2022/06/01 13:25:55;;;;;;;2.30;2.10;;;16.10;98.90;;;;;;5064035;28;20123;-58
2022/06/01 13:28:21;;;;;;;2.53;2.33;;;16.10;98.90;;;;;;5068947;28;20650;-58
2022/06/01 13:30:48;;;;;;;3.55;2.10;;;16.10;99.10;;;;;;5065484;28;20049;-57
2022/06/01 13:33:35;;;;;;;3.63;2.00;;;16.10;99.70;;;;;;5066491;28;20044;-59